SBFZ/FOR METAR and TAF weather

Enter ICAO airport designator
Station Type Date Time Source
SBFZ METAR 2022/07/01 01:00 UTC NOAA

SBFZ 010100Z 12004KT CAVOK 26/23 Q1014


Station Type Date Time Source
SBFZ Decoded METAR 2022/07/01 01:00 UTC NOAA

Fortaleza / pinto Martins , Brazil (SBFZ) 03-47S 038-32W 25M
Jun 30, 2022 - 09:00 PM EDT / 2022.07.01 0100 UTC
Wind: from the ESE (120 degrees) at 5 MPH (4 KT):0
Visibility: greater than 7 mile(s):0
Temperature: 78 F (26 C)
Dew Point: 73 F (23 C)
Relative Humidity: 83%
Pressure (altimeter): 29.94 in. Hg (1014 hPa)
ob: SBFZ 010100Z 12004KT CAVOK 26/23 Q1014
cycle: 1

Station Type Date Time Source
SBFZ TAF 2022/07/01 06:03 UTC NOAA

TAF SBFZ 010100Z 0106/0206 17005KT 9999 FEW017 TN24/0108Z TX30/0117Z
BECMG 0111/0114 11015KT
BECMG 0120/0122 10005KT
BECMG 0202/0204 17005KT
RMK PHI

Example: see airport list